Time;durP1;ratioP1;P1;durP2;ratioP2;P2;SDS_P1;SDS_P2;PMS_P1;PMS_P2;Temp;Humidity;BMP_temperature;BMP_pressure;BME280_temperature;BME280_humidity;BME280_pressure;Samples;Min_cycle;Max_cycle;Signal;HPM_P1;HPM_P2
2023/04/18 00:01:23;;;;;;;2.80;1.75;;;13.10;99.90;;;;;;5015339;28;20038;-51
2023/04/18 00:03:50;;;;;;;4.13;1.95;;;13.00;99.90;;;;;;5010034;28;20789;-50
2023/04/18 00:06:15;;;;;;;1.83;1.38;;;13.10;99.90;;;;;;5013243;28;20030;-51
2023/04/18 00:08:41;;;;;;;3.10;1.58;;;13.00;99.90;;;;;;4980265;28;20137;-52
2023/04/18 00:11:07;;;;;;;3.22;1.58;;;13.00;99.90;;;;;;4978374;28;20106;-51
2023/04/18 00:13:32;;;;;;;2.63;1.77;;;12.90;99.90;;;;;;5013299;28;20084;-51
2023/04/18 00:15:58;;;;;;;2.40;1.20;;;12.90;99.90;;;;;;5013624;28;20034;-50
2023/04/18 00:18:25;;;;;;;2.22;1.65;;;12.80;99.90;;;;;;4990666;28;20038;-51
2023/04/18 00:20:52;;;;;;;2.00;1.60;;;12.80;99.90;;;;;;4985268;28;20470;-51
2023/04/18 00:23:20;;;;;;;2.45;1.65;;;12.70;99.90;;;;;;4993253;28;20105;-50
2023/04/18 00:25:46;;;;;;;1.40;1.10;;;12.70;99.90;;;;;;4982239;28;20038;-50
2023/04/18 00:28:12;;;;;;;1.83;1.33;;;12.70;99.90;;;;;;4981269;28;20394;-51
2023/04/18 00:30:38;;;;;;;2.20;1.55;;;12.70;99.90;;;;;;4981458;28;20026;-51
2023/04/18 00:33:03;;;;;;;1.25;1.15;;;12.60;99.90;;;;;;4988811;28;20034;-51
2023/04/18 00:35:30;;;;;;;2.70;1.80;;;12.70;99.90;;;;;;4986187;28;20482;-51
2023/04/18 00:37:56;;;;;;;2.85;1.70;;;12.60;99.90;;;;;;4985217;28;20118;-51
2023/04/18 00:40:22;;;;;;;4.00;1.58;;;12.70;99.90;;;;;;4986335;28;20132;-51
2023/04/18 00:42:48;;;;;;;1.77;1.33;;;12.80;99.90;;;;;;4986507;28;20026;-51
2023/04/18 00:45:13;;;;;;;3.20;1.90;;;12.90;99.90;;;;;;4988362;28;20044;-50
2023/04/18 00:47:39;;;;;;;2.10;1.60;;;12.90;99.90;;;;;;4987975;28;20026;-51
2023/04/18 00:50:05;;;;;;;2.42;1.52;;;12.90;99.90;;;;;;4986056;28;20034;-51
2023/04/18 00:52:34;;;;;;;2.22;1.65;;;12.90;99.90;;;;;;4987758;28;20116;-50
2023/04/18 00:55:02;;;;;;;1.92;1.33;;;12.90;99.90;;;;;;4989782;28;20034;-51
2023/04/18 00:57:28;;;;;;;2.35;1.73;;;12.90;99.90;;;;;;4986765;28;20034;-53
2023/04/18 00:59:54;;;;;;;1.92;1.65;;;12.80;99.90;;;;;;4984148;28;20066;-51
2023/04/18 01:02:20;;;;;;;1.88;1.35;;;12.80;99.90;;;;;;4988600;28;20121;-51
2023/04/18 01:04:46;;;;;;;3.15;2.10;;;12.80;99.90;;;;;;4987031;28;20030;-50
2023/04/18 01:07:13;;;;;;;4.45;2.00;;;12.70;99.90;;;;;;4970413;28;20372;-50
2023/04/18 01:09:39;;;;;;;2.53;1.60;;;12.70;99.90;;;;;;4988337;28;20106;-50
2023/04/18 01:12:05;;;;;;;1.88;1.30;;;12.80;99.90;;;;;;4980360;28;20039;-51
2023/04/18 01:14:31;;;;;;;3.08;1.63;;;12.70;99.90;;;;;;4988088;28;20541;-51
2023/04/18 01:16:57;;;;;;;1.50;1.40;;;12.70;99.90;;;;;;4992281;28;20053;-50
2023/04/18 01:19:23;;;;;;;1.67;1.45;;;12.70;99.90;;;;;;4974501;28;20046;-52
2023/04/18 01:21:52;;;;;;;1.65;1.10;;;12.50;99.90;;;;;;5007348;28;20045;-51
2023/04/18 01:24:18;;;;;;;1.90;1.48;;;12.50;99.90;;;;;;4972444;28;20092;-50
2023/04/18 01:26:48;;;;;;;2.50;1.63;;;12.40;99.90;;;;;;5013772;28;20034;-50
2023/04/18 01:29:14;;;;;;;2.10;1.50;;;;;;;;;;5011550;28;20030;-50
2023/04/18 01:31:40;;;;;;;2.85;1.85;;;12.30;99.90;;;;;;5008748;28;20101;-50
2023/04/18 01:34:07;;;;;;;2.03;1.55;;;12.30;99.90;;;;;;5010535;28;20037;-50
2023/04/18 01:36:33;;;;;;;2.15;1.38;;;12.40;99.90;;;;;;5010936;28;20105;-51
2023/04/18 01:38:59;;;;;;;3.38;1.73;;;12.30;99.90;;;;;;5008978;28;20033;-50
2023/04/18 01:41:27;;;;;;;2.38;1.38;;;12.30;99.90;;;;;;4978409;28;20034;-51
2023/04/18 01:43:53;;;;;;;3.97;2.15;;;12.30;99.90;;;;;;5009956;28;20034;-51
2023/04/18 01:46:19;;;;;;;2.33;1.45;;;12.30;99.90;;;;;;5012448;28;20033;-50
2023/04/18 01:48:44;;;;;;;1.65;1.25;;;12.30;99.90;;;;;;5000760;28;20077;-51
2023/04/18 01:51:10;;;;;;;1.60;1.40;;;12.30;99.90;;;;;;5004987;28;20042;-51
2023/04/18 01:53:36;;;;;;;1.50;1.05;;;12.30;99.90;;;;;;5011426;28;20028;-51
2023/04/18 01:56:01;;;;;;;1.92;1.55;;;12.40;99.90;;;;;;5008515;28;20064;-52
2023/04/18 01:58:27;;;;;;;2.38;1.58;;;12.30;99.90;;;;;;4985092;28;20082;-50
2023/04/18 02:00:56;;;;;;;2.05;1.35;;;12.30;99.90;;;;;;5012997;28;20509;-50
2023/04/18 02:03:21;;;;;;;2.05;1.80;;;12.20;99.90;;;;;;5011010;28;20481;-51
2023/04/18 02:05:47;;;;;;;1.48;1.35;;;12.20;99.90;;;;;;4930733;28;20061;-51
2023/04/18 02:08:13;;;;;;;2.30;1.35;;;12.20;99.90;;;;;;5011204;28;20465;-51
2023/04/18 02:10:39;;;;;;;1.13;1.02;;;12.20;99.90;;;;;;5009708;28;20089;-51
2023/04/18 02:13:08;;;;;;;2.08;1.67;;;12.30;99.90;;;;;;5010097;28;20021;-51
2023/04/18 02:15:34;;;;;;;1.63;1.35;;;12.20;99.90;;;;;;5012601;28;20029;-51
2023/04/18 02:18:00;;;;;;;1.33;1.10;;;12.20;99.90;;;;;;4978410;28;20100;-50
2023/04/18 02:20:27;;;;;;;1.63;1.38;;;12.10;99.90;;;;;;5012086;28;20046;-51
2023/04/18 02:22:53;;;;;;;0.95;0.95;;;12.10;99.90;;;;;;5008540;28;20034;-50
2023/04/18 02:25:22;;;;;;;1.15;1.05;;;12.10;99.90;;;;;;4992678;28;20044;-51
2023/04/18 02:27:48;;;;;;;1.88;1.17;;;12.00;99.90;;;;;;5008496;28;20025;-51
2023/04/18 02:30:14;;;;;;;1.73;1.05;;;12.10;99.90;;;;;;5010590;28;20029;-50
2023/04/18 02:32:39;;;;;;;2.00;1.10;;;12.10;99.90;;;;;;5011329;28;20435;-51
2023/04/18 02:35:06;;;;;;;1.70;1.50;;;12.20;99.90;;;;;;5014445;28;20381;-51
2023/04/18 02:37:31;;;;;;;2.25;1.55;;;12.20;99.90;;;;;;4986548;28;20090;-51
2023/04/18 02:39:57;;;;;;;1.33;1.00;;;12.20;99.90;;;;;;4960849;28;20050;-52
2023/04/18 02:42:23;;;;;;;1.63;1.13;;;12.20;99.90;;;;;;5010586;28;20355;-51
2023/04/18 02:44:48;;;;;;;1.23;0.98;;;12.20;99.90;;;;;;5012359;28;20034;-52
2023/04/18 02:47:14;;;;;;;1.00;0.93;;;12.30;99.90;;;;;;5007774;28;20046;-51
2023/04/18 02:49:40;;;;;;;0.85;0.77;;;12.30;99.90;;;;;;5008553;28;20033;-52
2023/04/18 02:52:06;;;;;;;2.15;1.52;;;12.40;99.90;;;;;;4954700;28;20034;-50
2023/04/18 02:54:31;;;;;;;2.25;1.45;;;12.40;99.90;;;;;;5010394;28;20053;-51
2023/04/18 02:56:57;;;;;;;1.60;1.13;;;12.50;99.90;;;;;;5007911;28;20057;-51
2023/04/18 02:59:23;;;;;;;1.98;1.38;;;12.60;99.90;;;;;;4946048;28;20066;-50
2023/04/18 03:01:48;;;;;;;1.05;0.90;;;12.60;99.90;;;;;;5010354;28;20544;-51
2023/04/18 03:04:14;;;;;;;1.92;1.23;;;12.70;99.90;;;;;;5010513;28;20041;-51
2023/04/18 03:06:40;;;;;;;2.17;1.30;;;12.70;99.90;;;;;;5009540;28;20077;-53
2023/04/18 03:09:06;;;;;;;2.13;1.58;;;12.70;99.90;;;;;;5009439;28;20076;-50
2023/04/18 03:11:32;;;;;;;1.45;1.08;;;12.80;99.90;;;;;;4977872;28;20120;-50
2023/04/18 03:13:57;;;;;;;4.18;2.58;;;12.80;99.90;;;;;;5014457;28;20489;-50
2023/04/18 03:16:23;;;;;;;9.63;5.40;;;12.80;99.90;;;;;;5008331;28;20050;-51
2023/04/18 03:18:49;;;;;;;12.20;6.03;;;12.90;99.90;;;;;;4991759;28;20050;-51
2023/04/18 03:21:14;;;;;;;5.65;2.97;;;12.90;99.90;;;;;;4985938;28;20046;-50
2023/04/18 03:23:40;;;;;;;2.75;1.80;;;12.90;99.90;;;;;;5014302;28;20025;-50
2023/04/18 03:26:08;;;;;;;1.77;1.40;;;12.80;99.90;;;;;;4994663;28;20097;-51
2023/04/18 03:28:34;;;;;;;1.55;1.30;;;12.80;99.90;;;;;;4981177;28;20041;-52
2023/04/18 03:30:59;;;;;;;2.20;1.08;;;12.80;99.90;;;;;;5013821;28;20046;-50
2023/04/18 03:33:27;;;;;;;2.20;1.40;;;12.80;99.90;;;;;;5012648;28;20018;-51
2023/04/18 03:35:53;;;;;;;2.15;1.33;;;12.90;99.90;;;;;;5010499;28;20034;-51
2023/04/18 03:38:19;;;;;;;2.92;1.50;;;12.80;99.90;;;;;;5010396;28;20041;-52
2023/04/18 03:40:45;;;;;;;1.45;1.25;;;12.80;99.90;;;;;;5012517;28;20030;-51
2023/04/18 03:43:10;;;;;;;1.90;1.00;;;12.70;99.90;;;;;;5015131;28;20037;-51
2023/04/18 03:45:36;;;;;;;1.73;1.00;;;12.80;99.90;;;;;;4996392;28;20447;-50
2023/04/18 03:48:02;;;;;;;1.90;1.20;;;12.80;99.90;;;;;;5013843;28;20069;-51
2023/04/18 03:50:28;;;;;;;1.10;1.00;;;12.80;99.90;;;;;;5010708;28;20029;-50
2023/04/18 03:52:54;;;;;;;1.80;1.42;;;12.90;99.90;;;;;;5013514;28;20018;-51
2023/04/18 03:55:20;;;;;;;2.47;1.65;;;12.90;99.90;;;;;;4978974;28;20493;-50
2023/04/18 03:57:46;;;;;;;2.35;1.30;;;12.90;99.90;;;;;;5011769;28;20066;-52
2023/04/18 04:00:13;;;;;;;4.60;2.60;;;13.00;99.90;;;;;;5010055;28;20042;-51
2023/04/18 04:02:39;;;;;;;19.05;11.07;;;13.00;99.90;;;;;;5013326;28;20030;-51
2023/04/18 04:05:05;;;;;;;24.30;13.50;;;13.00;99.90;;;;;;5005754;28;20044;-51
2023/04/18 04:07:31;;;;;;;14.85;7.80;;;13.00;99.90;;;;;;5013644;28;20029;-51
2023/04/18 04:09:57;;;;;;;7.55;3.20;;;12.90;99.90;;;;;;5015277;28;20029;-50
2023/04/18 04:12:24;;;;;;;8.80;4.03;;;12.90;99.90;;;;;;5012079;28;20044;-50
2023/04/18 04:14:50;;;;;;;8.50;3.70;;;13.00;99.90;;;;;;5012602;28;20022;-50
2023/04/18 04:17:16;;;;;;;4.95;3.17;;;13.10;99.90;;;;;;4979203;28;20052;-50
2023/04/18 04:19:42;;;;;;;1.27;1.10;;;13.00;99.90;;;;;;5014814;28;20122;-51
2023/04/18 04:22:08;;;;;;;2.30;1.52;;;12.90;99.90;;;;;;4979578;28;20092;-51
2023/04/18 04:24:34;;;;;;;1.60;1.27;;;12.90;99.90;;;;;;5013218;28;20030;-51
2023/04/18 04:27:00;;;;;;;1.55;1.25;;;12.90;99.90;;;;;;4994927;28;20030;-52
2023/04/18 04:29:27;;;;;;;2.70;1.05;;;12.80;99.90;;;;;;4995470;28;20393;-50
2023/04/18 04:31:54;;;;;;;2.00;1.27;;;12.80;99.90;;;;;;5011662;28;20117;-51
2023/04/18 04:34:20;;;;;;;1.55;1.33;;;12.90;99.90;;;;;;5012759;28;20478;-51
2023/04/18 04:36:46;;;;;;;9.63;4.35;;;13.00;99.90;;;;;;5010843;28;20454;-51
2023/04/18 04:39:14;;;;;;;10.43;5.45;;;12.90;99.90;;;;;;5008295;28;20041;-50
2023/04/18 04:41:39;;;;;;;13.40;4.78;;;12.90;99.90;;;;;;5009610;28;20485;-51
2023/04/18 04:44:06;;;;;;;5.60;3.20;;;13.00;99.90;;;;;;5013146;28;20030;-51
2023/04/18 04:46:32;;;;;;;9.45;5.35;;;12.80;99.90;;;;;;5008082;28;20021;-51
2023/04/18 04:48:59;;;;;;;8.00;5.05;;;12.80;99.90;;;;;;5010486;28;20454;-51
2023/04/18 04:51:26;;;;;;;7.28;4.20;;;13.00;99.90;;;;;;5012046;28;20389;-51
2023/04/18 04:53:52;;;;;;;2.85;2.15;;;13.00;99.90;;;;;;5013897;28;20048;-51
2023/04/18 04:56:18;;;;;;;2.88;2.08;;;13.00;99.90;;;;;;4978720;28;20041;-52
2023/04/18 04:58:44;;;;;;;2.10;1.50;;;13.00;99.90;;;;;;5010712;28;20022;-50
2023/04/18 05:01:11;;;;;;;7.47;2.70;;;13.10;99.90;;;;;;5014500;28;20077;-51
2023/04/18 05:03:36;;;;;;;4.40;2.85;;;13.10;99.90;;;;;;5010241;28;20370;-51
2023/04/18 05:06:02;;;;;;;2.53;1.77;;;13.00;99.90;;;;;;5010774;28;20048;-50
2023/04/18 05:08:28;;;;;;;5.68;3.53;;;13.10;99.90;;;;;;4963216;28;20050;-51
2023/04/18 05:10:54;;;;;;;4.00;2.55;;;13.20;99.90;;;;;;5008038;28;20108;-52
2023/04/18 05:13:20;;;;;;;2.40;1.75;;;13.10;99.90;;;;;;4980189;28;20397;-51
2023/04/18 05:15:46;;;;;;;3.33;1.70;;;13.20;99.90;;;;;;5012180;28;20028;-52
2023/04/18 05:18:13;;;;;;;3.05;1.85;;;13.00;99.90;;;;;;5013585;28;20485;-51
2023/04/18 05:20:39;;;;;;;1.95;1.48;;;13.10;99.90;;;;;;5011079;28;20145;-52
2023/04/18 05:23:05;;;;;;;1.17;0.90;;;13.20;99.90;;;;;;5011955;28;20026;-52
2023/04/18 05:25:32;;;;;;;1.70;1.23;;;13.00;99.90;;;;;;4978487;28;20041;-52
2023/04/18 05:28:00;;;;;;;1.13;0.95;;;13.10;99.90;;;;;;5013000;28;20538;-52
2023/04/18 05:30:25;;;;;;;1.25;1.00;;;13.20;99.90;;;;;;5013678;28;20029;-52
2023/04/18 05:32:51;;;;;;;2.60;1.88;;;13.50;99.90;;;;;;5008815;28;20041;-53
2023/04/18 05:35:17;;;;;;;6.75;3.22;;;13.50;99.90;;;;;;4962099;28;20131;-55
2023/04/18 05:37:43;;;;;;;2.80;1.83;;;13.70;99.90;;;;;;4973681;28;20038;-54
2023/04/18 05:40:10;;;;;;;4.60;2.33;;;13.90;99.90;;;;;;5008890;28;20038;-52
2023/04/18 05:42:36;;;;;;;4.78;2.58;;;14.00;99.90;;;;;;4988672;28;20107;-52
2023/04/18 05:45:02;;;;;;;3.88;2.20;;;13.90;99.90;;;;;;5011837;28;20116;-52
2023/04/18 05:47:29;;;;;;;5.57;2.47;;;13.60;99.90;;;;;;5009779;28;20026;-54
2023/04/18 05:49:55;;;;;;;4.07;2.58;;;13.40;99.90;;;;;;5001191;28;20049;-53
2023/04/18 05:52:20;;;;;;;4.05;1.95;;;13.70;99.90;;;;;;4978317;28;20041;-52
2023/04/18 05:54:46;;;;;;;3.00;1.85;;;13.60;99.90;;;;;;4995804;28;20061;-53
2023/04/18 05:57:12;;;;;;;6.00;2.90;;;13.60;99.90;;;;;;5010293;28;20042;-53
2023/04/18 05:59:37;;;;;;;3.78;1.48;;;13.60;99.90;;;;;;4945964;28;20061;-52
2023/04/18 06:02:03;;;;;;;4.47;1.73;;;13.70;99.90;;;;;;5004341;28;20125;-54
2023/04/18 06:04:29;;;;;;;1.98;1.52;;;13.80;99.90;;;;;;5012030;28;20048;-52
2023/04/18 06:06:55;;;;;;;2.50;1.77;;;13.90;99.90;;;;;;5007894;28;20034;-52
2023/04/18 06:09:20;;;;;;;3.00;1.73;;;14.00;99.90;;;;;;4993818;28;20061;-53
2023/04/18 06:11:46;;;;;;;3.83;1.70;;;13.80;99.90;;;;;;5009555;28;20026;-52
2023/04/18 06:14:12;;;;;;;1.20;1.05;;;13.80;99.90;;;;;;5011123;28;20025;-53
2023/04/18 06:16:37;;;;;;;2.35;1.60;;;14.10;99.90;;;;;;5011561;28;20050;-54
2023/04/18 06:19:04;;;;;;;0.93;0.77;;;14.50;99.90;;;;;;5012900;28;20040;-53
2023/04/18 06:21:30;;;;;;;3.15;2.15;;;14.70;99.90;;;;;;5011562;28;20040;-52
2023/04/18 06:23:56;;;;;;;3.03;0.98;;;14.80;99.90;;;;;;5012054;28;20030;-53
2023/04/18 06:26:22;;;;;;;2.15;1.38;;;14.70;99.90;;;;;;5011536;28;20390;-52
2023/04/18 06:28:47;;;;;;;2.67;1.17;;;14.50;99.90;;;;;;5010254;28;20026;-52
2023/04/18 06:31:13;;;;;;;3.00;1.58;;;14.50;99.90;;;;;;5008233;28;20030;-53
2023/04/18 06:33:39;;;;;;;1.15;0.90;;;14.60;99.90;;;;;;4986908;28;20493;-53
2023/04/18 06:36:06;;;;;;;1.15;0.60;;;14.50;99.90;;;;;;5012099;28;20100;-54
2023/04/18 06:38:32;;;;;;;0.90;0.65;;;14.40;99.90;;;;;;4987120;28;20038;-51
2023/04/18 06:40:57;;;;;;;0.65;0.65;;;14.50;99.90;;;;;;5008534;28;20552;-53
2023/04/18 06:43:23;;;;;;;1.25;1.15;;;14.40;99.90;;;;;;5013869;28;20029;-52
2023/04/18 06:45:49;;;;;;;1.67;1.02;;;14.60;99.90;;;;;;5015323;28;20033;-52
2023/04/18 06:48:15;;;;;;;0.70;0.70;;;14.70;99.90;;;;;;5014445;28;20125;-53
2023/04/18 06:50:41;;;;;;;1.88;1.10;;;14.90;99.90;;;;;;5010199;28;20436;-53
2023/04/18 06:53:06;;;;;;;0.85;0.80;;;15.00;99.90;;;;;;5014531;28;20553;-52
2023/04/18 06:55:32;;;;;;;1.00;0.80;;;14.80;99.90;;;;;;5013412;28;20030;-53
2023/04/18 06:57:59;;;;;;;1.92;1.13;;;14.90;99.90;;;;;;5014103;28;20034;-52
2023/04/18 07:00:25;;;;;;;1.13;0.70;;;14.80;99.90;;;;;;5014340;28;20069;-52
2023/04/18 07:02:51;;;;;;;0.80;0.70;;;14.80;99.90;;;;;;4988258;28;20030;-52
2023/04/18 07:05:16;;;;;;;1.10;0.90;;;15.00;99.90;;;;;;5010731;28;20537;-53
2023/04/18 07:07:42;;;;;;;0.60;0.60;;;14.80;99.90;;;;;;4979811;28;20397;-52
2023/04/18 07:10:10;;;;;;;1.00;0.77;;;15.10;99.90;;;;;;5007919;28;20072;-52
2023/04/18 07:12:36;;;;;;;0.80;0.80;;;15.20;99.90;;;;;;5014825;28;20096;-53
2023/04/18 07:15:02;;;;;;;0.77;0.75;;;15.30;99.90;;;;;;5014633;28;20801;-53
2023/04/18 07:17:28;;;;;;;0.85;0.70;;;15.40;99.90;;;;;;5006830;28;20078;-52
2023/04/18 07:19:54;;;;;;;1.15;0.70;;;15.30;99.90;;;;;;5008197;28;20457;-53
2023/04/18 07:22:20;;;;;;;1.52;1.35;;;15.50;99.90;;;;;;5007972;28;20038;-54
2023/04/18 07:24:45;;;;;;;2.05;1.05;;;15.00;99.90;;;;;;5013439;28;20026;-52
2023/04/18 07:27:11;;;;;;;2.67;1.00;;;15.10;99.90;;;;;;5014868;28;20041;-53
2023/04/18 07:29:37;;;;;;;1.35;1.05;;;14.60;99.90;;;;;;5009489;28;20081;-52
2023/04/18 07:32:03;;;;;;;0.70;0.70;;;14.90;99.90;;;;;;5007842;28;20030;-52
2023/04/18 07:34:29;;;;;;;0.82;0.75;;;15.20;99.90;;;;;;5012771;28;20038;-52
2023/04/18 07:36:56;;;;;;;0.95;0.50;;;15.10;99.90;;;;;;4991841;28;20033;-52
2023/04/18 07:39:21;;;;;;;0.77;0.73;;;15.20;99.90;;;;;;5010512;28;20029;-53
2023/04/18 07:41:47;;;;;;;0.68;0.55;;;15.60;99.90;;;;;;5014132;28;20447;-52
2023/04/18 07:44:13;;;;;;;0.95;0.75;;;15.70;99.90;;;;;;5005417;28;20091;-52
2023/04/18 07:46:39;;;;;;;0.60;0.60;;;16.10;99.90;;;;;;5013394;28;20037;-53
2023/04/18 07:49:05;;;;;;;0.95;0.68;;;16.30;99.90;;;;;;5010392;28;20568;-52
2023/04/18 07:51:31;;;;;;;0.65;0.65;;;15.80;99.90;;;;;;4997294;28;20061;-54
2023/04/18 07:53:58;;;;;;;0.70;0.70;;;15.80;99.90;;;;;;4980859;28;20041;-53
2023/04/18 07:56:24;;;;;;;0.55;0.52;;;16.00;99.90;;;;;;5010432;28;20482;-54
2023/04/18 07:58:51;;;;;;;1.08;0.98;;;15.70;99.90;;;;;;5010800;28;20181;-52
2023/04/18 08:01:18;;;;;;;0.45;0.45;;;15.80;99.90;;;;;;5011271;28;20478;-53
2023/04/18 08:03:46;;;;;;;0.93;0.73;;;15.70;99.90;;;;;;5013618;28;20033;-53
2023/04/18 08:06:12;;;;;;;0.70;0.70;;;15.90;99.90;;;;;;5001959;28;20049;-53
2023/04/18 08:08:37;;;;;;;1.23;0.70;;;16.10;99.90;;;;;;5011081;28;20041;-54
2023/04/18 08:11:05;;;;;;;0.70;0.70;;;16.20;99.90;;;;;;5010095;28;20482;-53
2023/04/18 08:13:30;;;;;;;0.68;0.68;;;16.10;99.90;;;;;;4999318;28;20037;-51
2023/04/18 08:15:58;;;;;;;2.08;0.75;;;16.60;99.90;;;;;;4976047;28;20041;-51
2023/04/18 08:18:24;;;;;;;0.73;0.63;;;16.70;99.90;;;;;;4978207;28;20042;-52
2023/04/18 08:20:50;;;;;;;0.50;0.40;;;17.00;99.90;;;;;;5011833;28;20046;-51
2023/04/18 08:23:16;;;;;;;0.60;0.60;;;;;;;;;;5012297;28;20037;-51
2023/04/18 08:25:42;;;;;;;0.50;0.50;;;16.60;99.90;;;;;;4978549;28;20100;-51
2023/04/18 08:28:08;;;;;;;0.52;0.50;;;16.30;99.90;;;;;;4962183;28;20037;-53
2023/04/18 08:30:34;;;;;;;0.73;0.70;;;16.20;99.90;;;;;;4989588;28;20034;-54
2023/04/18 08:33:00;;;;;;;0.40;0.32;;;16.50;99.90;;;;;;5013413;28;20116;-54
2023/04/18 08:35:26;;;;;;;0.70;0.70;;;16.20;99.90;;;;;;4973073;28;20505;-53
2023/04/18 08:37:52;;;;;;;0.50;0.50;;;16.30;99.90;;;;;;4972600;28;20031;-52
2023/04/18 08:45:28;;;;;;;0.90;0.70;;;16.60;99.90;;;;;;5709264;23;20048;-55
2023/04/18 08:47:56;;;;;;;1.05;0.85;;;17.20;99.90;;;;;;5062743;28;20360;-53
2023/04/18 08:50:22;;;;;;;0.38;0.38;;;;;;;;;;5072705;28;20028;-54
2023/04/18 08:52:50;;;;;;;0.50;0.50;;;;;;;;;;5070950;28;20066;-53
2023/04/18 08:55:17;;;;;;;1.08;0.73;;;;;;;;;;5071953;28;20082;-50
2023/04/18 08:57:44;;;;;;;1.00;0.63;;;;;;;;;;5051842;28;20557;-60
2023/04/18 09:00:10;;;;;;;0.90;0.57;;;;;;;;;;5070509;28;20048;-50
2023/04/18 09:02:45;;;;;;;0.57;0.57;;;;;;;;;;5053565;28;20037;-51
2023/04/18 09:05:12;;;;;;;0.30;0.30;;;;;;;;;;5072841;28;20421;-55
2023/04/18 09:07:38;;;;;;;0.30;0.30;;;;;;;;;;5072979;28;20033;-56
2023/04/18 09:10:04;;;;;;;0.85;0.55;;;;;;;;;;5064290;28;20028;-54
2023/04/18 09:12:31;;;;;;;0.70;0.70;;;;;;;;;;5068051;28;20430;-53
2023/04/18 09:15:11;;;;;;;1.10;0.80;;;;;;;;;;5077544;28;20080;-53
2023/04/18 09:17:41;;;;;;;0.40;0.40;;;;;;;;;;5029029;28;20068;-55
2023/04/18 09:20:11;;;;;;;0.50;0.50;;;;;;;;;;5073070;28;20119;-53
2023/04/18 09:22:50;;;;;;;0.93;0.55;;;;;;;;;;5069915;28;20036;-54
2023/04/18 09:25:36;;;;;;;0.65;0.65;;;;;;;;;;5075215;28;20035;-54
2023/04/18 09:28:21;;;;;;;0.32;0.32;;;;;;;;;;5064835;28;20404;-55
2023/04/18 09:30:47;;;;;;;0.85;0.75;;;;;;;;;;5072033;28;20547;-53
2023/04/18 09:33:13;;;;;;;0.70;0.70;;;;;;;;;;5087981;28;20032;-55
2023/04/18 09:35:39;;;;;;;0.68;0.45;;;;;;;;;;5069983;28;20037;-55
2023/04/18 09:38:07;;;;;;;0.68;0.52;;;;;;;;;;5083715;28;20056;-54
2023/04/18 09:40:33;;;;;;;1.45;0.52;;;;;;;;;;5076368;28;20036;-54
2023/04/18 09:42:59;;;;;;;0.50;0.50;;;17.20;99.90;;;;;;5080103;28;20379;-54
2023/04/18 09:45:25;;;;;;;0.50;0.50;;;17.20;99.90;;;;;;5080328;28;20518;-57
2023/04/18 09:47:53;;;;;;;0.50;0.50;;;17.10;99.90;;;;;;5069491;28;20405;-53
2023/04/18 09:50:19;;;;;;;0.52;0.40;;;17.10;99.90;;;;;;5074583;28;20028;-54
2023/04/18 09:52:47;;;;;;;0.43;0.43;;;17.10;99.90;;;;;;5072740;28;20036;-54
2023/04/18 09:55:15;;;;;;;0.63;0.60;;;16.90;99.90;;;;;;5068858;28;20174;-52
2023/04/18 09:57:44;;;;;;;0.60;0.60;;;17.30;99.90;;;;;;5075991;28;20039;-55
2023/04/18 10:00:22;;;;;;;0.55;0.45;;;17.60;99.90;;;;;;5049193;28;20059;-52
2023/04/18 10:03:01;;;;;;;0.60;0.60;;;17.80;99.90;;;;;;5070079;28;20056;-57
2023/04/18 10:05:30;;;;;;;0.60;0.60;;;;;;;;;;5065562;28;20384;-53
2023/04/18 10:07:56;;;;;;;0.43;0.43;;;;;;;;;;5061359;28;20081;-52
2023/04/18 10:10:23;;;;;;;2.55;1.40;;;18.70;99.90;;;;;;5076758;28;20037;-53
2023/04/18 10:12:52;;;;;;;0.68;0.60;;;18.30;99.90;;;;;;5036452;28;20546;-54
2023/04/18 10:15:20;;;;;;;0.40;0.40;;;;;;;;;;5058638;28;20055;-54
2023/04/18 10:18:03;;;;;;;0.47;0.47;;;;;;;;;;5074982;28;20149;-51
2023/04/18 10:20:30;;;;;;;0.57;0.57;;;;;;;;;;5073618;28;20032;-55
2023/04/18 10:22:57;;;;;;;0.50;0.50;;;;;;;;;;5077403;28;20050;-51
2023/04/18 10:25:35;;;;;;;0.50;0.50;;;;;;;;;;5038956;28;20033;-51
2023/04/18 10:28:02;;;;;;;0.57;0.57;;;;;;;;;;5061070;28;20036;-53
2023/04/18 10:30:40;;;;;;;1.13;0.70;;;19.00;99.90;;;;;;5078450;28;20025;-55
2023/04/18 10:33:26;;;;;;;0.50;0.50;;;19.20;99.90;;;;;;5037408;28;20052;-51
2023/04/18 10:36:11;;;;;;;0.93;0.70;;;19.00;99.90;;;;;;5068372;28;20024;-52
2023/04/18 10:38:43;;;;;;;0.60;0.57;;;;;;;;;;5071418;28;20052;-52
2023/04/18 10:41:21;;;;;;;0.43;0.43;;;;;;;;;;5066743;28;20479;-52
2023/04/18 10:44:09;;;;;;;0.52;0.50;;;;;;;;;;5076109;28;20372;-52
2023/04/18 10:46:39;;;;;;;0.60;0.60;;;19.30;99.90;;;;;;5074830;28;20084;-52
2023/04/18 10:49:13;;;;;;;1.08;0.60;;;19.70;99.90;;;;;;5071883;28;20028;-51
2023/04/18 10:51:39;;;;;;;0.55;0.50;;;19.30;99.90;;;;;;5078329;28;20075;-55
2023/04/18 10:54:07;;;;;;;0.85;0.80;;;;;;;;;;5044426;28;20044;-51
2023/04/18 10:56:33;;;;;;;0.80;0.80;;;;;;;;;;5070717;28;20483;-48
2023/04/18 10:59:01;;;;;;;0.63;0.50;;;;;;;;;;4991625;28;20047;-57
2023/04/18 11:01:29;;;;;;;0.55;0.50;;;;;;;;;;5066414;28;20091;-51
2023/04/18 11:03:55;;;;;;;0.98;0.73;;;;;;;;;;5077844;28;20081;-54
2023/04/18 11:06:26;;;;;;;6.68;2.75;;;;;;;;;;5068283;28;20033;-54
2023/04/18 11:09:08;;;;;;;5.88;1.70;;;;;;;;;;5076705;28;20462;-52
2023/04/18 11:11:34;;;;;;;;;;;20.80;99.90;;;;;;5078455;28;20028;-51
2023/04/18 11:14:00;;;;;;;0.98;0.88;;;;;;;;;;5024572;28;19982;-51
2023/04/18 11:16:27;;;;;;;4.97;2.33;;;21.30;99.90;;;;;;5065200;28;20116;-54
2023/04/18 11:18:54;;;;;;;1.13;0.70;;;21.10;99.90;;;;;;5082349;28;20074;-56
2023/04/18 11:21:19;;;;;;;3.33;1.65;;;21.00;99.90;;;;;;5066942;28;20044;-55
2023/04/18 11:23:46;;;;;;;1.73;1.17;;;;;;;;;;5074222;28;20041;-52
2023/04/18 11:26:16;;;;;;;3.20;1.52;;;21.30;99.90;;;;;;5031351;28;20037;-55
2023/04/18 11:28:42;;;;;;;1.65;0.77;;;21.20;99.90;;;;;;5048225;28;20048;-51
2023/04/18 11:31:08;;;;;;;1.10;0.88;;;21.00;99.90;;;;;;5074817;28;20032;-52
2023/04/18 11:33:34;;;;;;;0.77;0.77;;;20.80;99.90;;;;;;5059540;28;20131;-50
2023/04/18 11:35:59;;;;;;;2.13;1.05;;;20.70;99.90;;;;;;5082580;28;20479;-55
2023/04/18 11:38:31;;;;;;;1.20;0.88;;;20.60;99.90;;;;;;5078283;28;20028;-52
2023/04/18 11:40:57;;;;;;;0.80;0.70;;;20.40;99.90;;;;;;5069504;28;20049;-52
2023/04/18 11:43:24;;;;;;;0.93;0.70;;;;;;;;;;5035479;28;20044;-52
2023/04/18 11:45:51;;;;;;;1.48;0.77;;;;;;;;;;5082125;28;20083;-53
2023/04/18 11:48:17;;;;;;;1.38;0.98;;;;;;;;;;5071892;28;20098;-51
2023/04/18 11:50:44;;;;;;;1.92;1.10;;;;;;;;;;5074487;28;20039;-51
2023/04/18 11:53:10;;;;;;;2.42;1.25;;;;;;;;;;5019361;28;20044;-51
2023/04/18 11:55:36;;;;;;;1.42;1.08;;;;;;;;;;5077591;28;20236;-52
2023/04/18 11:58:03;;;;;;;1.20;0.90;;;;;;;;;;5072561;28;20021;-52
2023/04/18 12:00:35;;;;;;;1.20;0.95;;;;;;;;;;5073111;28;20024;-51
2023/04/18 12:03:09;;;;;;;0.93;0.60;;;18.80;99.90;;;;;;5070318;28;21019;-51
2023/04/18 12:05:36;;;;;;;1.63;0.90;;;18.60;99.90;;;;;;5069727;28;20040;-49
2023/04/18 12:08:20;;;;;;;0.82;0.73;;;18.60;99.90;;;;;;5073543;28;20028;-52
2023/04/18 12:10:47;;;;;;;1.30;1.05;;;19.00;99.90;;;;;;5075184;28;20426;-52
2023/04/18 12:13:13;;;;;;;2.17;0.70;;;19.20;99.90;;;;;;5040423;28;20087;-52
2023/04/18 12:15:42;;;;;;;1.00;0.90;;;19.20;99.90;;;;;;5074715;28;20024;-53
2023/04/18 12:18:09;;;;;;;2.95;1.10;;;19.40;99.90;;;;;;5067175;28;20036;-52
2023/04/18 12:20:51;;;;;;;8.00;3.40;;;19.70;99.90;;;;;;5079978;28;20032;-53
2023/04/18 12:23:34;;;;;;;0.57;0.57;;;19.90;99.90;;;;;;5071548;28;20037;-52
2023/04/18 12:26:10;;;;;;;1.05;0.80;;;19.90;99.90;;;;;;5072013;28;20505;-51
2023/04/18 12:28:36;;;;;;;5.25;2.22;;;;;;;;;;5079351;28;20115;-51
2023/04/18 12:31:05;;;;;;;5.03;3.10;;;20.40;99.90;;;;;;5053487;28;20056;-51
2023/04/18 12:33:32;;;;;;;2.65;1.58;;;20.50;99.90;;;;;;5038296;28;20052;-49
2023/04/18 12:35:58;;;;;;;0.80;0.80;;;20.60;99.90;;;;;;5076101;28;20069;-58
2023/04/18 12:38:23;;;;;;;1.27;0.90;;;20.80;99.90;;;;;;5076403;28;20032;-57
2023/04/18 12:40:50;;;;;;;1.65;1.48;;;20.80;99.90;;;;;;5070790;28;20037;-56
2023/04/18 12:43:17;;;;;;;1.23;0.93;;;20.60;99.90;;;;;;5070158;28;20483;-50
2023/04/18 12:45:44;;;;;;;1.75;0.73;;;20.20;99.90;;;;;;5068436;28;20071;-50
2023/04/18 12:48:10;;;;;;;0.60;0.60;;;20.10;99.90;;;;;;5014212;28;20067;-50
2023/04/18 12:50:35;;;;;;;1.52;1.10;;;20.20;99.90;;;;;;5066213;28;20061;-50
2023/04/18 12:53:01;;;;;;;0.60;0.55;;;;;;;;;;5079492;28;20024;-50
2023/04/18 12:55:28;;;;;;;1.55;1.00;;;19.50;99.90;;;;;;5078099;28;20120;-50
2023/04/18 12:57:54;;;;;;;0.85;0.80;;;19.10;99.90;;;;;;5079898;28;20024;-51
2023/04/18 13:00:22;;;;;;;2.33;1.13;;;19.50;99.90;;;;;;5077450;28;20378;-51
2023/04/18 13:02:48;;;;;;;2.42;0.85;;;19.30;99.90;;;;;;5071908;28;20054;-50
2023/04/18 13:05:15;;;;;;;0.82;0.82;;;19.40;99.90;;;;;;5073879;28;20520;-51
2023/04/18 13:07:42;;;;;;;1.23;0.70;;;19.30;99.90;;;;;;5036673;28;20044;-51
2023/04/18 13:10:10;;;;;;;0.77;0.73;;;18.70;99.90;;;;;;5077585;28;20039;-51